sensor_id;sensor_type;location;lat;lon;timestamp;temperature;humidity
20315;DHT22;10315;50.958;13.080;2023-03-21T00:02:17;7.60;99.90
20315;DHT22;10315;50.958;13.080;2023-03-21T00:12:20;7.50;99.90
20315;DHT22;10315;50.958;13.080;2023-03-21T00:22:21;7.40;99.90
20315;DHT22;10315;50.958;13.080;2023-03-21T00:32:24;7.40;99.90
20315;DHT22;10315;50.958;13.080;2023-03-21T00:42:26;7.20;99.90
20315;DHT22;10315;50.958;13.080;2023-03-21T00:52:43;7.10;99.90
20315;DHT22;10315;50.958;13.080;2023-03-21T01:02:45;7.00;99.90
20315;DHT22;10315;50.958;13.080;2023-03-21T01:12:57;6.80;99.90
20315;DHT22;10315;50.958;13.080;2023-03-21T01:22:59;6.90;99.90
20315;DHT22;10315;50.958;13.080;2023-03-21T01:33:05;6.90;99.90
20315;DHT22;10315;50.958;13.080;2023-03-21T01:43:20;7.00;99.90
20315;DHT22;10315;50.958;13.080;2023-03-21T01:53:26;6.90;99.90
20315;DHT22;10315;50.958;13.080;2023-03-21T02:03:47;6.70;99.90
20315;DHT22;10315;50.958;13.080;2023-03-21T02:13:53;6.50;99.90
20315;DHT22;10315;50.958;13.080;2023-03-21T02:24:18;6.80;99.90
20315;DHT22;10315;50.958;13.080;2023-03-21T02:34:48;6.70;99.90
20315;DHT22;10315;50.958;13.080;2023-03-21T02:44:59;6.70;99.90
20315;DHT22;10315;50.958;13.080;2023-03-21T02:55:03;6.60;99.90
20315;DHT22;10315;50.958;13.080;2023-03-21T03:05:14;6.40;99.90
20315;DHT22;10315;50.958;13.080;2023-03-21T03:15:29;6.50;99.90
20315;DHT22;10315;50.958;13.080;2023-03-21T03:25:40;6.50;99.90
20315;DHT22;10315;50.958;13.080;2023-03-21T03:35:43;6.30;99.90
20315;DHT22;10315;50.958;13.080;2023-03-21T03:45:49;6.20;99.90
20315;DHT22;10315;50.958;13.080;2023-03-21T03:55:55;6.10;99.90
20315;DHT22;10315;50.958;13.080;2023-03-21T04:06:00;6.00;99.90
20315;DHT22;10315;50.958;13.080;2023-03-21T04:16:02;6.00;99.90
20315;DHT22;10315;50.958;13.080;2023-03-21T04:26:05;6.10;99.90
20315;DHT22;10315;50.958;13.080;2023-03-21T04:36:08;6.20;99.90
20315;DHT22;10315;50.958;13.080;2023-03-21T04:46:26;6.00;99.90
20315;DHT22;10315;50.958;13.080;2023-03-21T04:56:29;5.90;99.90
20315;DHT22;10315;50.958;13.080;2023-03-21T05:06:34;5.90;99.90
20315;DHT22;10315;50.958;13.080;2023-03-21T05:16:38;5.80;99.90
20315;DHT22;10315;50.958;13.080;2023-03-21T05:26:49;5.70;99.90
20315;DHT22;10315;50.958;13.080;2023-03-21T05:36:52;5.60;99.90
20315;DHT22;10315;50.958;13.080;2023-03-21T05:46:58;5.50;99.90
20315;DHT22;10315;50.958;13.080;2023-03-21T05:56:59;5.60;99.90
20315;DHT22;10315;50.958;13.080;2023-03-21T06:07:02;6.00;99.90
20315;DHT22;10315;50.958;13.080;2023-03-21T06:17:04;6.50;99.90
20315;DHT22;10315;50.958;13.080;2023-03-21T06:27:07;7.20;99.90
20315;DHT22;10315;50.958;13.080;2023-03-21T06:37:08;6.80;99.90
20315;DHT22;10315;50.958;13.080;2023-03-21T06:47:11;6.70;99.90
20315;DHT22;10315;50.958;13.080;2023-03-21T06:57:13;6.80;99.90
20315;DHT22;10315;50.958;13.080;2023-03-21T07:07:16;7.00;99.90
20315;DHT22;10315;50.958;13.080;2023-03-21T07:17:17;7.60;99.90
20315;DHT22;10315;50.958;13.080;2023-03-21T07:27:20;8.50;99.90
20315;DHT22;10315;50.958;13.080;2023-03-21T07:37:22;8.60;99.90
20315;DHT22;10315;50.958;13.080;2023-03-21T07:47:25;8.20;99.90
20315;DHT22;10315;50.958;13.080;2023-03-21T07:57:28;9.00;99.90
20315;DHT22;10315;50.958;13.080;2023-03-21T08:07:31;9.20;99.90
20315;DHT22;10315;50.958;13.080;2023-03-21T08:17:33;9.50;99.90
20315;DHT22;10315;50.958;13.080;2023-03-21T08:27:42;9.00;99.90
20315;DHT22;10315;50.958;13.080;2023-03-21T08:37:44;9.00;99.90
20315;DHT22;10315;50.958;13.080;2023-03-21T08:47:47;9.80;99.90
20315;DHT22;10315;50.958;13.080;2023-03-21T08:57:48;10.10;99.90
20315;DHT22;10315;50.958;13.080;2023-03-21T09:07:51;9.80;99.90
20315;DHT22;10315;50.958;13.080;2023-03-21T09:17:53;11.90;99.90
20315;DHT22;10315;50.958;13.080;2023-03-21T09:28:02;12.00;99.90
20315;DHT22;10315;50.958;13.080;2023-03-21T09:38:04;11.80;99.90
20315;DHT22;10315;50.958;13.080;2023-03-21T09:48:16;12.30;99.90
20315;DHT22;10315;50.958;13.080;2023-03-21T09:58:32;12.10;99.90
20315;DHT22;10315;50.958;13.080;2023-03-21T10:08:39;12.70;99.90
20315;DHT22;10315;50.958;13.080;2023-03-21T10:18:42;13.10;99.90
20315;DHT22;10315;50.958;13.080;2023-03-21T10:28:46;12.80;99.90
20315;DHT22;10315;50.958;13.080;2023-03-21T10:38:49;13.30;99.90
20315;DHT22;10315;50.958;13.080;2023-03-21T10:48:56;14.10;99.90
20315;DHT22;10315;50.958;13.080;2023-03-21T10:58:59;14.10;99.90
20315;DHT22;10315;50.958;13.080;2023-03-21T11:09:06;14.90;99.90
20315;DHT22;10315;50.958;13.080;2023-03-21T11:19:14;14.80;99.90
20315;DHT22;10315;50.958;13.080;2023-03-21T11:29:26;15.20;99.90
20315;DHT22;10315;50.958;13.080;2023-03-21T11:39:36;16.20;99.90
20315;DHT22;10315;50.958;13.080;2023-03-21T11:49:41;16.50;99.90
20315;DHT22;10315;50.958;13.080;2023-03-21T11:59:46;16.00;99.90
20315;DHT22;10315;50.958;13.080;2023-03-21T12:10:01;15.50;99.90
20315;DHT22;10315;50.958;13.080;2023-03-21T12:20:16;16.10;99.90
20315;DHT22;10315;50.958;13.080;2023-03-21T12:30:39;16.60;99.90
20315;DHT22;10315;50.958;13.080;2023-03-21T12:40:52;16.60;99.90
20315;DHT22;10315;50.958;13.080;2023-03-21T12:50:59;17.40;99.90
20315;DHT22;10315;50.958;13.080;2023-03-21T13:01:06;17.40;99.90
20315;DHT22;10315;50.958;13.080;2023-03-21T13:11:14;16.90;99.90
20315;DHT22;10315;50.958;13.080;2023-03-21T13:21:22;16.90;99.90
20315;DHT22;10315;50.958;13.080;2023-03-21T13:31:27;16.80;99.90
20315;DHT22;10315;50.958;13.080;2023-03-21T13:41:31;16.90;99.90
20315;DHT22;10315;50.958;13.080;2023-03-21T13:51:43;16.90;99.90
20315;DHT22;10315;50.958;13.080;2023-03-21T14:01:59;17.10;99.90
20315;DHT22;10315;50.958;13.080;2023-03-21T14:12:04;17.10;99.90
20315;DHT22;10315;50.958;13.080;2023-03-21T14:22:09;17.10;99.90
20315;DHT22;10315;50.958;13.080;2023-03-21T14:32:22;17.10;99.90
20315;DHT22;10315;50.958;13.080;2023-03-21T14:42:26;16.70;99.90
20315;DHT22;10315;50.958;13.080;2023-03-21T14:52:30;16.70;99.90
20315;DHT22;10315;50.958;13.080;2023-03-21T15:02:37;16.60;99.90
20315;DHT22;10315;50.958;13.080;2023-03-21T15:12:50;16.60;99.90
20315;DHT22;10315;50.958;13.080;2023-03-21T15:22:54;17.40;99.90
20315;DHT22;10315;50.958;13.080;2023-03-21T15:33:04;17.60;99.90
20315;DHT22;10315;50.958;13.080;2023-03-21T15:43:14;16.00;99.90
20315;DHT22;10315;50.958;13.080;2023-03-21T15:53:26;15.30;99.90
20315;DHT22;10315;50.958;13.080;2023-03-21T16:03:30;15.10;99.90
20315;DHT22;10315;50.958;13.080;2023-03-21T16:13:33;14.80;99.90
20315;DHT22;10315;50.958;13.080;2023-03-21T16:23:35;14.60;99.90
20315;DHT22;10315;50.958;13.080;2023-03-21T16:33:38;14.30;99.90
20315;DHT22;10315;50.958;13.080;2023-03-21T16:43:41;14.30;99.90
20315;DHT22;10315;50.958;13.080;2023-03-21T16:53:45;14.10;99.90
20315;DHT22;10315;50.958;13.080;2023-03-21T17:03:47;13.90;99.90
20315;DHT22;10315;50.958;13.080;2023-03-21T17:13:51;13.70;99.90
20315;DHT22;10315;50.958;13.080;2023-03-21T17:23:54;13.30;99.90
20315;DHT22;10315;50.958;13.080;2023-03-21T17:33:58;13.30;99.90
20315;DHT22;10315;50.958;13.080;2023-03-21T17:43:59;13.00;99.90
20315;DHT22;10315;50.958;13.080;2023-03-21T17:54:03;13.00;99.90
20315;DHT22;10315;50.958;13.080;2023-03-21T18:04:07;12.80;99.90
20315;DHT22;10315;50.958;13.080;2023-03-21T18:14:10;12.30;99.90
20315;DHT22;10315;50.958;13.080;2023-03-21T18:24:12;12.10;99.90
20315;DHT22;10315;50.958;13.080;2023-03-21T18:34:16;11.90;99.90
20315;DHT22;10315;50.958;13.080;2023-03-21T18:44:17;11.80;99.90
20315;DHT22;10315;50.958;13.080;2023-03-21T18:54:20;11.80;99.90
20315;DHT22;10315;50.958;13.080;2023-03-21T19:04:22;11.70;99.90
20315;DHT22;10315;50.958;13.080;2023-03-21T19:14:26;11.60;99.90
20315;DHT22;10315;50.958;13.080;2023-03-21T19:24:27;11.50;99.90
20315;DHT22;10315;50.958;13.080;2023-03-21T19:34:31;11.50;99.90
20315;DHT22;10315;50.958;13.080;2023-03-21T19:44:32;11.40;99.90
20315;DHT22;10315;50.958;13.080;2023-03-21T19:54:36;11.30;99.90
20315;DHT22;10315;50.958;13.080;2023-03-21T20:04:37;11.10;99.90
20315;DHT22;10315;50.958;13.080;2023-03-21T20:14:41;10.90;99.90
20315;DHT22;10315;50.958;13.080;2023-03-21T20:24:47;11.20;99.90
20315;DHT22;10315;50.958;13.080;2023-03-21T20:34:49;11.30;99.90
20315;DHT22;10315;50.958;13.080;2023-03-21T20:44:51;11.30;99.90
20315;DHT22;10315;50.958;13.080;2023-03-21T20:54:55;11.00;99.90
20315;DHT22;10315;50.958;13.080;2023-03-21T21:04:57;10.80;99.90
20315;DHT22;10315;50.958;13.080;2023-03-21T21:15:00;10.50;99.90
20315;DHT22;10315;50.958;13.080;2023-03-21T21:25:02;10.20;99.90
20315;DHT22;10315;50.958;13.080;2023-03-21T21:35:06;10.00;99.90
20315;DHT22;10315;50.958;13.080;2023-03-21T21:45:10;9.90;99.90
20315;DHT22;10315;50.958;13.080;2023-03-21T21:55:14;9.70;99.90
20315;DHT22;10315;50.958;13.080;2023-03-21T22:05:19;9.70;99.90
20315;DHT22;10315;50.958;13.080;2023-03-21T22:15:22;9.60;99.90
20315;DHT22;10315;50.958;13.080;2023-03-21T22:25:23;9.40;99.90
20315;DHT22;10315;50.958;13.080;2023-03-21T22:35:27;9.40;99.90
20315;DHT22;10315;50.958;13.080;2023-03-21T22:45:28;9.40;99.90
20315;DHT22;10315;50.958;13.080;2023-03-21T22:55:42;9.30;99.90
20315;DHT22;10315;50.958;13.080;2023-03-21T23:05:44;9.20;99.90
20315;DHT22;10315;50.958;13.080;2023-03-21T23:15:47;9.20;99.90
20315;DHT22;10315;50.958;13.080;2023-03-21T23:25:48;9.20;99.90
20315;DHT22;10315;50.958;13.080;2023-03-21T23:35:51;9.20;99.90
20315;DHT22;10315;50.958;13.080;2023-03-21T23:45:53;9.20;99.90
20315;DHT22;10315;50.958;13.080;2023-03-21T23:55:56;9.30;99.90
